Terminal Aerodrome Forecast
Issued by NWS Boston, MA

Home | Current Version | Previous Version | Text Only | Print | Product List | Glossary On
Versions: 1 2 3 4 5 6 7 8 9 10 11 12 13 14 15 16 17 18 19 20
000
FTUS41 KBOX 250536
TAFBDL
TAF
KBDL 250536Z 2506/2612 32006KT P6SM SKC
     FM250700 32005KT P6SM SCT080
     FM251500 28005KT P6SM BKN080
     FM252100 24006KT P6SM BKN040
     FM260400 19005KT P6SM SCT200
     FM260900 VRB03KT P6SM BKN035=

USA.gov is the U.S. government's official web portal to all federal, state and local government web resources and services.